sensor_id;sensor_type;location;lat;lon;timestamp;pressure;altitude;pressure_sealevel;temperature;humidity
76853;BME280;65825;52.232;10.566;2023-04-09T00:00:00;101859.56;;;2.08;89.42
76853;BME280;65825;52.232;10.566;2023-04-09T00:02:25;101869.81;;;2.00;90.02
76853;BME280;65825;52.232;10.566;2023-04-09T00:04:50;101866.22;;;1.95;90.11
76853;BME280;65825;52.232;10.566;2023-04-09T00:07:16;101859.38;;;2.00;90.31
76853;BME280;65825;52.232;10.566;2023-04-09T00:09:41;101858.50;;;2.00;89.41
76853;BME280;65825;52.232;10.566;2023-04-09T00:12:06;101858.69;;;2.09;88.82
76853;BME280;65825;52.232;10.566;2023-04-09T00:14:31;101867.44;;;2.12;88.59
76853;BME280;65825;52.232;10.566;2023-04-09T00:16:57;101868.66;;;2.29;88.09
76853;BME280;65825;52.232;10.566;2023-04-09T00:19:22;101866.13;;;2.32;88.16
76853;BME280;65825;52.232;10.566;2023-04-09T00:21:47;101861.13;;;2.43;88.71
76853;BME280;65825;52.232;10.566;2023-04-09T00:24:13;101861.28;;;2.50;88.87
76853;BME280;65825;52.232;10.566;2023-04-09T00:26:38;101860.75;;;2.68;88.61
76853;BME280;65825;52.232;10.566;2023-04-09T00:29:03;101853.03;;;2.72;87.73
76853;BME280;65825;52.232;10.566;2023-04-09T00:31:29;101853.09;;;2.77;87.05
76853;BME280;65825;52.232;10.566;2023-04-09T00:33:54;101861.00;;;2.80;88.98
76853;BME280;65825;52.232;10.566;2023-04-09T00:36:20;101851.63;;;2.91;87.72
76853;BME280;65825;52.232;10.566;2023-04-09T00:38:45;101849.75;;;2.84;87.28
76853;BME280;65825;52.232;10.566;2023-04-09T00:41:12;101856.59;;;2.79;87.05
76853;BME280;65825;52.232;10.566;2023-04-09T00:43:37;101851.16;;;2.65;87.30
76853;BME280;65825;52.232;10.566;2023-04-09T00:46:03;101847.56;;;2.59;89.10
76853;BME280;65825;52.232;10.566;2023-04-09T00:48:29;101855.91;;;2.41;90.10
76853;BME280;65825;52.232;10.566;2023-04-09T00:50:54;101855.78;;;2.37;90.61
76853;BME280;65825;52.232;10.566;2023-04-09T00:53:19;101849.84;;;2.42;90.48
76853;BME280;65825;52.232;10.566;2023-04-09T00:55:45;101844.66;;;2.44;91.13
76853;BME280;65825;52.232;10.566;2023-04-09T00:58:10;101845.63;;;2.49;90.87
76853;BME280;65825;52.232;10.566;2023-04-09T01:00:36;101836.97;;;2.50;90.98
76853;BME280;65825;52.232;10.566;2023-04-09T01:03:03;101837.66;;;2.41;90.89
76853;BME280;65825;52.232;10.566;2023-04-09T01:05:49;101835.91;;;2.40;90.77
76853;BME280;65825;52.232;10.566;2023-04-09T01:16:28;101840.63;;;2.16;90.66
76853;BME280;65825;52.232;10.566;2023-04-09T01:18:58;101833.56;;;2.09;89.92
76853;BME280;65825;52.232;10.566;2023-04-09T01:21:29;101838.59;;;2.03;89.22
76853;BME280;65825;52.232;10.566;2023-04-09T01:24:39;101847.78;;;1.86;89.48
76853;BME280;65825;52.232;10.566;2023-04-09T01:27:11;101841.34;;;1.69;90.25
76853;BME280;65825;52.232;10.566;2023-04-09T01:29:45;101834.22;;;1.61;90.58
76853;BME280;65825;52.232;10.566;2023-04-09T01:32:12;101840.50;;;1.70;90.19
76853;BME280;65825;52.232;10.566;2023-04-09T01:34:40;101841.34;;;1.69;90.44
76853;BME280;65825;52.232;10.566;2023-04-09T01:37:07;101831.78;;;1.68;90.42
76853;BME280;65825;52.232;10.566;2023-04-09T01:39:33;101831.88;;;1.73;89.79
76853;BME280;65825;52.232;10.566;2023-04-09T01:41:59;101835.25;;;1.69;90.12
76853;BME280;65825;52.232;10.566;2023-04-09T01:44:26;101841.59;;;1.81;89.75
76853;BME280;65825;52.232;10.566;2023-04-09T01:46:53;101838.34;;;1.91;89.15
76853;BME280;65825;52.232;10.566;2023-04-09T01:49:19;101830.47;;;1.88;89.65
76853;BME280;65825;52.232;10.566;2023-04-09T01:51:44;101840.72;;;1.81;90.42
76853;BME280;65825;52.232;10.566;2023-04-09T01:54:11;101838.16;;;1.82;90.94
76853;BME280;65825;52.232;10.566;2023-04-09T01:56:44;101832.34;;;1.94;91.35
76853;BME280;65825;52.232;10.566;2023-04-09T01:59:10;101829.94;;;2.03;91.19
76853;BME280;65825;52.232;10.566;2023-04-09T02:01:46;101832.00;;;2.19;90.34
76853;BME280;65825;52.232;10.566;2023-04-09T02:04:32;101832.84;;;2.18;91.21
76853;BME280;65825;52.232;10.566;2023-04-09T02:09:59;101828.66;;;2.26;92.27
76853;BME280;65825;52.232;10.566;2023-04-09T02:12:25;101837.41;;;2.29;92.61
76853;BME280;65825;52.232;10.566;2023-04-09T02:14:51;101833.09;;;2.30;92.48
76853;BME280;65825;52.232;10.566;2023-04-09T02:17:17;101838.34;;;2.31;91.80
76853;BME280;65825;52.232;10.566;2023-04-09T02:19:44;101835.69;;;2.30;92.71
76853;BME280;65825;52.232;10.566;2023-04-09T02:22:10;101834.78;;;2.28;92.15
76853;BME280;65825;52.232;10.566;2023-04-09T02:24:37;101841.84;;;2.33;92.12
76853;BME280;65825;52.232;10.566;2023-04-09T02:27:03;101841.13;;;2.42;91.82
76853;BME280;65825;52.232;10.566;2023-04-09T02:29:29;101839.38;;;2.41;91.95
76853;BME280;65825;52.232;10.566;2023-04-09T02:31:54;101828.22;;;2.48;91.25
76853;BME280;65825;52.232;10.566;2023-04-09T02:34:20;101830.81;;;2.48;91.17
76853;BME280;65825;52.232;10.566;2023-04-09T02:36:45;101826.47;;;2.47;90.81
76853;BME280;65825;52.232;10.566;2023-04-09T02:39:10;101837.09;;;2.57;90.78
76853;BME280;65825;52.232;10.566;2023-04-09T02:41:36;101832.78;;;2.59;90.65
76853;BME280;65825;52.232;10.566;2023-04-09T02:44:01;101836.34;;;2.64;90.99
76853;BME280;65825;52.232;10.566;2023-04-09T02:46:26;101830.25;;;2.62;91.29
76853;BME280;65825;52.232;10.566;2023-04-09T02:48:51;101835.50;;;2.65;91.04
76853;BME280;65825;52.232;10.566;2023-04-09T02:51:17;101831.31;;;2.73;91.17
76853;BME280;65825;52.232;10.566;2023-04-09T02:53:42;101827.88;;;2.76;91.13
76853;BME280;65825;52.232;10.566;2023-04-09T02:56:07;101819.34;;;2.84;90.36
76853;BME280;65825;52.232;10.566;2023-04-09T02:58:32;101821.09;;;2.85;90.45
76853;BME280;65825;52.232;10.566;2023-04-09T03:00:58;101825.34;;;2.80;90.31
76853;BME280;65825;52.232;10.566;2023-04-09T03:03:23;101822.84;;;2.86;89.99
76853;BME280;65825;52.232;10.566;2023-04-09T03:05:48;101822.06;;;2.90;90.02
76853;BME280;65825;52.232;10.566;2023-04-09T03:08:13;101823.09;;;2.98;89.27
76853;BME280;65825;52.232;10.566;2023-04-09T03:10:39;101817.84;;;2.97;89.18
76853;BME280;65825;52.232;10.566;2023-04-09T03:13:04;101817.91;;;3.01;90.07
76853;BME280;65825;52.232;10.566;2023-04-09T03:15:29;101817.13;;;3.07;89.42
76853;BME280;65825;52.232;10.566;2023-04-09T03:17:55;101811.13;;;3.12;89.19
76853;BME280;65825;52.232;10.566;2023-04-09T03:20:20;101809.34;;;3.08;88.99
76853;BME280;65825;52.232;10.566;2023-04-09T03:22:45;101806.66;;;3.05;89.18
76853;BME280;65825;52.232;10.566;2023-04-09T03:25:11;101809.28;;;3.05;89.10
76853;BME280;65825;52.232;10.566;2023-04-09T03:27:36;101814.50;;;3.05;88.62
76853;BME280;65825;52.232;10.566;2023-04-09T03:30:01;101817.97;;;3.04;89.15
76853;BME280;65825;52.232;10.566;2023-04-09T03:32:27;101824.84;;;3.02;88.94
76853;BME280;65825;52.232;10.566;2023-04-09T03:34:52;101824.88;;;3.01;89.05
76853;BME280;65825;52.232;10.566;2023-04-09T03:37:17;101819.56;;;2.98;89.23
76853;BME280;65825;52.232;10.566;2023-04-09T03:39:43;101823.09;;;2.98;88.50
76853;BME280;65825;52.232;10.566;2023-04-09T03:42:08;101815.81;;;2.81;89.21
76853;BME280;65825;52.232;10.566;2023-04-09T03:44:33;101827.03;;;2.77;89.32
76853;BME280;65825;52.232;10.566;2023-04-09T03:46:59;101820.00;;;2.73;88.83
76853;BME280;65825;52.232;10.566;2023-04-09T03:49:24;101820.81;;;2.70;88.16
76853;BME280;65825;52.232;10.566;2023-04-09T03:51:49;101817.94;;;2.55;88.78
76853;BME280;65825;52.232;10.566;2023-04-09T03:54:15;101818.72;;;2.50;89.07
76853;BME280;65825;52.232;10.566;2023-04-09T03:56:40;101829.75;;;2.35;89.82
76853;BME280;65825;52.232;10.566;2023-04-09T03:59:05;101822.84;;;2.39;89.44
76853;BME280;65825;52.232;10.566;2023-04-09T04:01:31;101826.47;;;2.47;90.28
76853;BME280;65825;52.232;10.566;2023-04-09T04:03:56;101830.22;;;2.61;89.76
76853;BME280;65825;52.232;10.566;2023-04-09T04:06:21;101825.06;;;2.65;89.28
76853;BME280;65825;52.232;10.566;2023-04-09T04:08:47;101830.53;;;2.77;88.69
76853;BME280;65825;52.232;10.566;2023-04-09T04:11:12;101831.47;;;2.81;89.77
76853;BME280;65825;52.232;10.566;2023-04-09T04:13:37;101826.47;;;2.94;89.92
76853;BME280;65825;52.232;10.566;2023-04-09T04:16:06;101821.50;;;3.08;89.28
76853;BME280;65825;52.232;10.566;2023-04-09T04:18:32;101819.91;;;3.16;89.11
76853;BME280;65825;52.232;10.566;2023-04-09T04:20:57;101819.03;;;3.17;89.66
76853;BME280;65825;52.232;10.566;2023-04-09T04:23:22;101828.81;;;3.30;89.22
76853;BME280;65825;52.232;10.566;2023-04-09T04:25:47;101826.34;;;3.39;88.83
76853;BME280;65825;52.232;10.566;2023-04-09T04:28:13;101827.25;;;3.42;88.61
76853;BME280;65825;52.232;10.566;2023-04-09T04:30:40;101830.88;;;3.50;88.79
76853;BME280;65825;52.232;10.566;2023-04-09T04:33:06;101830.06;;;3.56;88.02
76853;BME280;65825;52.232;10.566;2023-04-09T04:35:31;101839.78;;;3.66;87.66
76853;BME280;65825;52.232;10.566;2023-04-09T04:37:57;101834.53;;;3.64;88.02
76853;BME280;65825;52.232;10.566;2023-04-09T04:40:22;101839.84;;;3.69;88.05
76853;BME280;65825;52.232;10.566;2023-04-09T04:42:47;101835.59;;;3.75;88.10
76853;BME280;65825;52.232;10.566;2023-04-09T04:45:13;101831.16;;;3.70;88.89
76853;BME280;65825;52.232;10.566;2023-04-09T04:47:38;101830.44;;;3.80;88.25
76853;BME280;65825;52.232;10.566;2023-04-09T04:50:04;101841.88;;;3.89;88.37
76853;BME280;65825;52.232;10.566;2023-04-09T04:52:30;101834.22;;;4.01;87.63
76853;BME280;65825;52.232;10.566;2023-04-09T04:54:55;101840.34;;;4.05;87.65
76853;BME280;65825;52.232;10.566;2023-04-09T04:57:21;101829.09;;;4.10;87.36
76853;BME280;65825;52.232;10.566;2023-04-09T04:59:46;101838.00;;;4.24;86.75
76853;BME280;65825;52.232;10.566;2023-04-09T05:02:11;101839.72;;;4.24;86.62
76853;BME280;65825;52.232;10.566;2023-04-09T05:04:36;101833.69;;;4.29;86.45
76853;BME280;65825;52.232;10.566;2023-04-09T05:07:02;101831.16;;;4.37;85.75
76853;BME280;65825;52.232;10.566;2023-04-09T05:09:27;101832.88;;;4.36;85.91
76853;BME280;65825;52.232;10.566;2023-04-09T05:11:52;101832.81;;;4.27;86.52
76853;BME280;65825;52.232;10.566;2023-04-09T05:14:17;101831.16;;;4.37;86.46
76853;BME280;65825;52.232;10.566;2023-04-09T05:16:45;101840.91;;;4.50;86.00
76853;BME280;65825;52.232;10.566;2023-04-09T05:19:10;101841.75;;;4.46;86.45
76853;BME280;65825;52.232;10.566;2023-04-09T05:21:36;101844.41;;;4.50;86.65
76853;BME280;65825;52.232;10.566;2023-04-09T05:24:01;101843.59;;;4.59;86.86
76853;BME280;65825;52.232;10.566;2023-04-09T05:26:26;101843.66;;;4.62;86.71
76853;BME280;65825;52.232;10.566;2023-04-09T05:28:51;101849.91;;;4.74;86.90
76853;BME280;65825;52.232;10.566;2023-04-09T05:31:17;101843.06;;;4.87;86.51
76853;BME280;65825;52.232;10.566;2023-04-09T05:33:42;101846.66;;;4.99;86.46
76853;BME280;65825;52.232;10.566;2023-04-09T05:36:08;101847.56;;;5.06;86.16
76853;BME280;65825;52.232;10.566;2023-04-09T05:38:33;101841.50;;;5.07;86.66
76853;BME280;65825;52.232;10.566;2023-04-09T05:40:59;101846.06;;;5.30;85.92
76853;BME280;65825;52.232;10.566;2023-04-09T05:43:25;101843.53;;;5.45;85.49
76853;BME280;65825;52.232;10.566;2023-04-09T05:45:50;101848.00;;;5.54;85.81
76853;BME280;65825;52.232;10.566;2023-04-09T05:48:15;101849.78;;;5.62;85.49
76853;BME280;65825;52.232;10.566;2023-04-09T05:50:48;101848.13;;;5.76;84.84
76853;BME280;65825;52.232;10.566;2023-04-09T05:53:13;101843.06;;;5.97;84.79
76853;BME280;65825;52.232;10.566;2023-04-09T05:55:38;101846.66;;;6.19;84.50
76853;BME280;65825;52.232;10.566;2023-04-09T05:58:04;101844.06;;;6.22;84.14
76853;BME280;65825;52.232;10.566;2023-04-09T06:00:29;101850.13;;;6.18;84.01
76853;BME280;65825;52.232;10.566;2023-04-09T06:02:56;101843.19;;;6.27;83.67
76853;BME280;65825;52.232;10.566;2023-04-09T06:05:22;101841.47;;;6.40;84.26
76853;BME280;65825;52.232;10.566;2023-04-09T06:07:47;101835.38;;;6.38;84.34
76853;BME280;65825;52.232;10.566;2023-04-09T06:10:12;101845.91;;;6.56;83.17
76853;BME280;65825;52.232;10.566;2023-04-09T06:12:37;101847.66;;;6.52;83.46
76853;BME280;65825;52.232;10.566;2023-04-09T06:15:04;101839.81;;;6.64;83.97
76853;BME280;65825;52.232;10.566;2023-04-09T06:17:29;101848.56;;;6.71;82.99
76853;BME280;65825;52.232;10.566;2023-04-09T06:19:54;101849.44;;;6.65;83.62
76853;BME280;65825;52.232;10.566;2023-04-09T06:22:20;101858.16;;;6.58;83.79
76853;BME280;65825;52.232;10.566;2023-04-09T06:24:45;101863.44;;;6.69;83.58
76853;BME280;65825;52.232;10.566;2023-04-09T06:27:10;101863.44;;;6.69;83.95
76853;BME280;65825;52.232;10.566;2023-04-09T06:29:36;101870.47;;;6.85;82.91
76853;BME280;65825;52.232;10.566;2023-04-09T06:32:01;101873.09;;;6.82;83.76
76853;BME280;65825;52.232;10.566;2023-04-09T06:34:27;101866.13;;;6.85;84.00
76853;BME280;65825;52.232;10.566;2023-04-09T06:36:52;101873.97;;;6.93;83.71
76853;BME280;65825;52.232;10.566;2023-04-09T06:39:17;101874.88;;;6.93;83.10
76853;BME280;65825;52.232;10.566;2023-04-09T06:41:42;101869.63;;;6.99;83.62
76853;BME280;65825;52.232;10.566;2023-04-09T06:44:08;101868.78;;;7.11;81.90
76853;BME280;65825;52.232;10.566;2023-04-09T06:46:33;101872.28;;;7.16;82.02
76853;BME280;65825;52.232;10.566;2023-04-09T06:48:58;101876.66;;;7.30;81.57
76853;BME280;65825;52.232;10.566;2023-04-09T06:51:24;101870.53;;;7.39;81.05
76853;BME280;65825;52.232;10.566;2023-04-09T06:53:49;101870.56;;;7.37;80.92
76853;BME280;65825;52.232;10.566;2023-04-09T06:56:14;101866.16;;;7.44;80.96
76853;BME280;65825;52.232;10.566;2023-04-09T06:58:40;101873.19;;;7.43;80.96
76853;BME280;65825;52.232;10.566;2023-04-09T07:01:05;101867.91;;;7.54;80.31
76853;BME280;65825;52.232;10.566;2023-04-09T07:03:30;101874.91;;;7.64;81.25
76853;BME280;65825;52.232;10.566;2023-04-09T07:05:56;101876.66;;;7.75;80.64
76853;BME280;65825;52.232;10.566;2023-04-09T07:08:22;101874.03;;;7.74;81.07
76853;BME280;65825;52.232;10.566;2023-04-09T07:10:47;101875.78;;;7.81;80.23
76853;BME280;65825;52.232;10.566;2023-04-09T07:13:13;101878.41;;;7.79;80.92
76853;BME280;65825;52.232;10.566;2023-04-09T07:15:38;101877.50;;;7.91;80.31
76853;BME280;65825;52.232;10.566;2023-04-09T07:18:03;101874.88;;;7.94;80.05
76853;BME280;65825;52.232;10.566;2023-04-09T07:20:28;101876.59;;;8.04;80.09
76853;BME280;65825;52.232;10.566;2023-04-09T07:22:54;101883.56;;;8.11;79.20
76853;BME280;65825;52.232;10.566;2023-04-09T07:25:20;101881.84;;;8.10;79.44
76853;BME280;65825;52.232;10.566;2023-04-09T07:27:45;101876.56;;;8.26;79.71
76853;BME280;65825;52.232;10.566;2023-04-09T07:30:11;101878.31;;;8.30;79.75
76853;BME280;65825;52.232;10.566;2023-04-09T07:32:36;101879.19;;;8.35;78.59
76853;BME280;65825;52.232;10.566;2023-04-09T07:35:03;101873.03;;;8.38;78.85
76853;BME280;65825;52.232;10.566;2023-04-09T07:37:29;101875.59;;;8.47;78.68
76853;BME280;65825;52.232;10.566;2023-04-09T07:39:54;101873.75;;;8.68;77.83
76853;BME280;65825;52.232;10.566;2023-04-09T07:42:21;101877.25;;;8.70;77.18
76853;BME280;65825;52.232;10.566;2023-04-09T07:44:46;101879.84;;;8.76;78.27
76853;BME280;65825;52.232;10.566;2023-04-09T07:47:11;101878.91;;;8.86;77.25
76853;BME280;65825;52.232;10.566;2023-04-09T07:49:37;101881.66;;;8.70;77.09
76853;BME280;65825;52.232;10.566;2023-04-09T07:52:03;101879.00;;;8.68;77.51
76853;BME280;65825;52.232;10.566;2023-04-09T07:54:28;101883.44;;;8.62;77.73
76853;BME280;65825;52.232;10.566;2023-04-09T07:56:55;101881.75;;;8.49;77.35
76853;BME280;65825;52.232;10.566;2023-04-09T07:59:20;101879.97;;;8.49;77.57
76853;BME280;65825;52.232;10.566;2023-04-09T08:01:46;101881.72;;;8.52;77.62
76853;BME280;65825;52.232;10.566;2023-04-09T08:04:11;101882.69;;;8.31;78.18
76853;BME280;65825;52.232;10.566;2023-04-09T08:06:37;101887.06;;;8.19;78.87
76853;BME280;65825;52.232;10.566;2023-04-09T08:09:03;101886.22;;;8.20;79.66
76853;BME280;65825;52.232;10.566;2023-04-09T08:11:28;101890.59;;;8.22;79.58
76853;BME280;65825;52.232;10.566;2023-04-09T08:13:54;101887.94;;;8.33;78.98
76853;BME280;65825;52.232;10.566;2023-04-09T08:16:20;101883.53;;;8.41;78.75
76853;BME280;65825;52.232;10.566;2023-04-09T08:18:47;101887.84;;;8.58;77.79
76853;BME280;65825;52.232;10.566;2023-04-09T08:21:12;101889.56;;;8.59;77.44
76853;BME280;65825;52.232;10.566;2023-04-09T08:23:38;101883.38;;;8.68;76.69
76853;BME280;65825;52.232;10.566;2023-04-09T08:26:03;101886.78;;;8.89;76.18
76853;BME280;65825;52.232;10.566;2023-04-09T08:28:28;101888.50;;;8.98;74.15
76853;BME280;65825;52.232;10.566;2023-04-09T08:30:54;101884.97;;;8.99;73.46
76853;BME280;65825;52.232;10.566;2023-04-09T08:33:19;101887.56;;;9.06;73.48
76853;BME280;65825;52.232;10.566;2023-04-09T08:35:44;101889.28;;;9.09;72.12
76853;BME280;65825;52.232;10.566;2023-04-09T08:38:12;101891.94;;;9.12;72.79
76853;BME280;65825;52.232;10.566;2023-04-09T08:40:37;101888.41;;;9.10;72.34
76853;BME280;65825;52.232;10.566;2023-04-09T08:43:04;101890.16;;;9.14;72.57
76853;BME280;65825;52.232;10.566;2023-04-09T08:45:31;101892.78;;;9.14;72.40
76853;BME280;65825;52.232;10.566;2023-04-09T08:47:56;101886.59;;;9.19;72.50
76853;BME280;65825;52.232;10.566;2023-04-09T08:50:24;101897.00;;;9.39;70.36
76853;BME280;65825;52.232;10.566;2023-04-09T08:52:50;101889.91;;;9.47;70.54
76853;BME280;65825;52.232;10.566;2023-04-09T08:55:15;101890.50;;;9.79;69.75
76853;BME280;65825;52.232;10.566;2023-04-09T08:57:41;101893.72;;;10.14;68.88
76853;BME280;65825;52.232;10.566;2023-04-09T09:00:07;101888.03;;;10.45;67.21
76853;BME280;65825;52.232;10.566;2023-04-09T09:02:33;101891.09;;;10.82;65.60
76853;BME280;65825;52.232;10.566;2023-04-09T09:04:59;101884.63;;;11.01;64.95
76853;BME280;65825;52.232;10.566;2023-04-09T09:07:27;101888.41;;;10.85;62.54
76853;BME280;65825;52.232;10.566;2023-04-09T09:09:58;101887.88;;;10.57;64.49
76853;BME280;65825;52.232;10.566;2023-04-09T09:12:39;101889.03;;;10.35;64.70
76853;BME280;65825;52.232;10.566;2023-04-09T09:15:23;101878.81;;;10.78;64.50
76853;BME280;65825;52.232;10.566;2023-04-09T09:17:56;101877.50;;;11.65;63.61
76853;BME280;65825;52.232;10.566;2023-04-09T09:20:22;101882.47;;;13.10;59.46
76853;BME280;65825;52.232;10.566;2023-04-09T09:22:49;101872.50;;;19.11;44.56
76853;BME280;65825;52.232;10.566;2023-04-09T09:25:15;101868.34;;;26.68;26.80
76853;BME280;65825;52.232;10.566;2023-04-09T09:27:41;101864.00;;;23.51;29.60
76853;BME280;65825;52.232;10.566;2023-04-09T09:30:08;101868.72;;;21.93;33.94
76853;BME280;65825;52.232;10.566;2023-04-09T09:32:35;101869.25;;;20.76;36.95
76853;BME280;65825;52.232;10.566;2023-04-09T09:35:01;101864.88;;;30.42;22.47
76853;BME280;65825;52.232;10.566;2023-04-09T09:37:28;101864.44;;;34.80;18.31
76853;BME280;65825;52.232;10.566;2023-04-09T09:39:54;101874.38;;;36.11;14.05
76853;BME280;65825;52.232;10.566;2023-04-09T09:42:19;101862.59;;;36.02;14.71
76853;BME280;65825;52.232;10.566;2023-04-09T09:44:45;101856.56;;;36.44;15.04
76853;BME280;65825;52.232;10.566;2023-04-09T09:47:11;101857.94;;;38.67;12.71
76853;BME280;65825;52.232;10.566;2023-04-09T09:49:40;101852.25;;;39.03;11.96
76853;BME280;65825;52.232;10.566;2023-04-09T09:52:09;101854.06;;;40.42;12.02
76853;BME280;65825;52.232;10.566;2023-04-09T09:54:39;101848.56;;;39.30;10.62
76853;BME280;65825;52.232;10.566;2023-04-09T09:57:08;101854.47;;;40.00;10.16
76853;BME280;65825;52.232;10.566;2023-04-09T09:59:36;101844.06;;;40.47;10.36
76853;BME280;65825;52.232;10.566;2023-04-09T10:02:04;101842.19;;;33.13;15.47
76853;BME280;65825;52.232;10.566;2023-04-09T10:04:32;101837.63;;;37.78;12.11
76853;BME280;65825;52.232;10.566;2023-04-09T10:07:00;101825.50;;;30.17;19.46
76853;BME280;65825;52.232;10.566;2023-04-09T10:09:29;101842.53;;;26.75;22.05
76853;BME280;65825;52.232;10.566;2023-04-09T10:11:56;101830.63;;;24.80;24.91
76853;BME280;65825;52.232;10.566;2023-04-09T10:14:23;101835.41;;;23.75;27.13
76853;BME280;65825;52.232;10.566;2023-04-09T10:16:50;101836.06;;;25.63;26.11
76853;BME280;65825;52.232;10.566;2023-04-09T10:19:15;101831.78;;;24.51;25.37
76853;BME280;65825;52.232;10.566;2023-04-09T10:22:22;101824.56;;;28.43;21.44
76853;BME280;65825;52.232;10.566;2023-04-09T10:24:40;101824.69;;;27.15;21.30
76853;BME280;65825;52.232;10.566;2023-04-09T10:27:13;101820.66;;;23.54;26.41
76853;BME280;65825;52.232;10.566;2023-04-09T10:29:47;101829.44;;;24.72;26.03
76853;BME280;65825;52.232;10.566;2023-04-09T10:32:17;101821.00;;;24.01;24.58
76853;BME280;65825;52.232;10.566;2023-04-09T10:34:45;101813.94;;;30.52;17.07
76853;BME280;65825;52.232;10.566;2023-04-09T10:37:15;101828.78;;;35.18;13.83
76853;BME280;65825;52.232;10.566;2023-04-09T10:39:45;101809.19;;;37.98;11.10
76853;BME280;65825;52.232;10.566;2023-04-09T10:42:13;101816.81;;;31.14;15.99
76853;BME280;65825;52.232;10.566;2023-04-09T10:44:40;101800.88;;;25.29;22.29
76853;BME280;65825;52.232;10.566;2023-04-09T10:47:06;101805.38;;;25.52;22.86
76853;BME280;65825;52.232;10.566;2023-04-09T10:49:36;101806.09;;;33.10;15.49
76853;BME280;65825;52.232;10.566;2023-04-09T10:52:06;101808.22;;;33.32;14.96
76853;BME280;65825;52.232;10.566;2023-04-09T10:57:15;101800.56;;;25.44;22.93
76853;BME280;65825;52.232;10.566;2023-04-09T10:59:45;101801.69;;;24.57;23.46
76853;BME280;65825;52.232;10.566;2023-04-09T11:07:26;101800.41;;;32.95;14.75
76853;BME280;65825;52.232;10.566;2023-04-09T11:09:53;101802.31;;;36.96;11.46
76853;BME280;65825;52.232;10.566;2023-04-09T11:12:18;101784.31;;;32.92;13.72
76853;BME280;65825;52.232;10.566;2023-04-09T11:14:44;101772.03;;;28.12;17.76
76853;BME280;65825;52.232;10.566;2023-04-09T11:17:09;101784.97;;;25.24;21.66
76853;BME280;65825;52.232;10.566;2023-04-09T11:19:35;101799.16;;;26.75;21.59
76853;BME280;65825;52.232;10.566;2023-04-09T11:22:02;101782.66;;;36.41;12.65
76853;BME280;65825;52.232;10.566;2023-04-09T11:24:39;101795.03;;;39.50;10.31
76853;BME280;65825;52.232;10.566;2023-04-09T11:27:04;101789.94;;;41.59;8.46
76853;BME280;65825;52.232;10.566;2023-04-09T11:29:29;101775.97;;;39.75;9.88
76853;BME280;65825;52.232;10.566;2023-04-09T11:31:55;101783.22;;;34.55;13.12
76853;BME280;65825;52.232;10.566;2023-04-09T11:34:20;101769.00;;;29.05;17.82
76853;BME280;65825;52.232;10.566;2023-04-09T11:36:48;101784.53;;;32.40;16.11
76853;BME280;65825;52.232;10.566;2023-04-09T11:39:13;101769.31;;;29.50;17.78
76853;BME280;65825;52.232;10.566;2023-04-09T11:41:38;101770.47;;;25.83;23.39
76853;BME280;65825;52.232;10.566;2023-04-09T11:44:04;101780.47;;;23.76;24.38
76853;BME280;65825;52.232;10.566;2023-04-09T11:46:31;101773.22;;;23.52;25.49
76853;BME280;65825;52.232;10.566;2023-04-09T11:48:57;101782.03;;;24.42;23.92
76853;BME280;65825;52.232;10.566;2023-04-09T11:51:23;101777.94;;;26.91;21.75
76853;BME280;65825;52.232;10.566;2023-04-09T11:53:48;101764.88;;;31.50;16.40
76853;BME280;65825;52.232;10.566;2023-04-09T11:56:15;101776.50;;;28.43;21.49
76853;BME280;65825;52.232;10.566;2023-04-09T11:58:43;101768.38;;;35.18;14.99
76853;BME280;65825;52.232;10.566;2023-04-09T12:01:09;101775.09;;;39.01;9.92
76853;BME280;65825;52.232;10.566;2023-04-09T12:03:35;101779.63;;;40.91;9.46
76853;BME280;65825;52.232;10.566;2023-04-09T12:06:02;101781.19;;;40.74;8.50
76853;BME280;65825;52.232;10.566;2023-04-09T12:08:27;101778.50;;;39.89;8.79
76853;BME280;65825;52.232;10.566;2023-04-09T12:10:53;101781.31;;;40.92;8.86
76853;BME280;65825;52.232;10.566;2023-04-09T12:13:19;101773.19;;;39.94;9.17
76853;BME280;65825;52.232;10.566;2023-04-09T12:15:47;101773.13;;;41.54;8.85
76853;BME280;65825;52.232;10.566;2023-04-09T12:18:13;101770.63;;;41.77;8.08
76853;BME280;65825;52.232;10.566;2023-04-09T12:20:43;101762.94;;;41.48;8.22
76853;BME280;65825;52.232;10.566;2023-04-09T12:23:09;101757.28;;;43.25;7.49
76853;BME280;65825;52.232;10.566;2023-04-09T12:25:36;101758.44;;;42.69;7.14
76853;BME280;65825;52.232;10.566;2023-04-09T12:28:03;101761.97;;;42.76;8.17
76853;BME280;65825;52.232;10.566;2023-04-09T12:30:29;101750.09;;;43.76;8.21
76853;BME280;65825;52.232;10.566;2023-04-09T12:32:54;101742.38;;;43.49;7.29
76853;BME280;65825;52.232;10.566;2023-04-09T12:35:21;101746.03;;;43.49;7.45
76853;BME280;65825;52.232;10.566;2023-04-09T12:37:46;101735.66;;;42.97;6.47
76853;BME280;65825;52.232;10.566;2023-04-09T12:40:12;101733.06;;;42.95;6.69
76853;BME280;65825;52.232;10.566;2023-04-09T12:42:44;101735.56;;;43.33;7.63
76853;BME280;65825;52.232;10.566;2023-04-09T12:45:13;101708.91;;;37.36;11.17
76853;BME280;65825;52.232;10.566;2023-04-09T12:47:38;101726.44;;;40.69;10.05
76853;BME280;65825;52.232;10.566;2023-04-09T12:50:05;101716.13;;;43.15;8.66
76853;BME280;65825;52.232;10.566;2023-04-09T12:52:30;101709.09;;;38.32;9.88
76853;BME280;65825;52.232;10.566;2023-04-09T12:54:56;101717.38;;;40.43;8.88
76853;BME280;65825;52.232;10.566;2023-04-09T12:57:21;101717.09;;;41.08;8.49
76853;BME280;65825;52.232;10.566;2023-04-09T12:59:46;101716.97;;;41.27;8.48
76853;BME280;65825;52.232;10.566;2023-04-09T13:02:11;101709.88;;;41.44;8.52